createdAt,value
2019-05-20T00:00:46.325Z,80.50
2019-05-20T00:01:46.289Z,80.50
2019-05-20T00:02:46.267Z,80.44
2019-05-20T00:03:46.255Z,80.50
2019-05-20T00:04:46.248Z,81.15
2019-05-20T00:05:46.596Z,80.94
2019-05-20T00:06:46.257Z,80.60
2019-05-20T00:07:46.214Z,80.94
2019-05-20T00:08:46.204Z,81.45
2019-05-20T00:09:46.207Z,81.45
2019-05-20T00:10:46.179Z,81.65
2019-05-20T00:11:46.167Z,81.48
2019-05-20T00:12:46.192Z,81.35
2019-05-20T00:13:46.152Z,81.95
2019-05-20T00:14:46.135Z,81.68
2019-05-20T00:15:46.124Z,81.79
2019-05-20T00:16:46.113Z,82.05
2019-05-20T00:17:46.103Z,82.79
2019-05-20T00:18:46.128Z,81.68
2019-05-20T00:19:46.080Z,81.99
2019-05-20T00:20:46.068Z,82.79
2019-05-20T00:21:46.058Z,81.79
2019-05-20T00:22:46.053Z,81.89
2019-05-20T00:23:46.038Z,82.70
2019-05-20T00:24:46.066Z,82.90
2019-05-20T00:25:46.015Z,82.79
2019-05-20T00:26:46.001Z,83.00
2019-05-20T00:27:45.994Z,83.64
2019-05-20T00:28:45.983Z,83.74
2019-05-20T00:29:45.971Z,83.34
2019-05-20T00:30:45.983Z,83.84
2019-05-20T00:31:45.948Z,83.44
2019-05-20T00:32:45.935Z,83.44
2019-05-20T00:33:45.926Z,83.44
2019-05-20T00:34:45.916Z,83.64
2019-05-20T00:35:45.928Z,83.74
2019-05-20T00:36:45.894Z,83.64
2019-05-20T00:37:45.889Z,83.54
2019-05-20T00:38:45.869Z,83.20
2019-05-20T00:39:45.860Z,83.20
2019-05-20T00:40:45.874Z,83.10
2019-05-20T00:41:45.839Z,83.24
2019-05-20T00:42:45.828Z,82.93
2019-05-20T00:43:45.815Z,83.44
2019-05-20T00:44:45.806Z,83.34
2019-05-20T00:45:45.818Z,83.44
2019-05-20T00:46:45.784Z,83.54
2019-05-20T00:47:45.773Z,82.93
2019-05-20T00:48:45.760Z,83.54
2019-05-20T00:49:45.759Z,83.54
2019-05-20T00:50:45.766Z,83.74
2019-05-20T00:51:45.738Z,83.54
2019-05-20T00:52:45.717Z,83.54
2019-05-20T00:53:45.711Z,83.78
2019-05-20T00:54:45.696Z,83.44
2019-05-20T00:55:45.710Z,84.19
2019-05-20T00:56:45.676Z,84.19
2019-05-20T00:57:45.664Z,84.09
2019-05-20T00:58:45.654Z,84.39
2019-05-20T00:59:45.649Z,84.19
2019-05-20T01:00:45.656Z,84.29
2019-05-20T01:01:45.619Z,84.39
2019-05-20T01:02:56.383Z,84.09
2019-05-20T01:03:46.596Z,84.09
2019-05-20T01:04:45.587Z,84.05
2019-05-20T01:05:45.601Z,83.24
2019-05-20T01:06:45.564Z,83.58
2019-05-20T01:07:45.557Z,83.74
2019-05-20T01:08:45.543Z,83.74
2019-05-20T01:09:45.534Z,83.88
2019-05-20T01:10:45.548Z,83.78
2019-05-20T01:11:45.527Z,83.38
2019-05-20T01:12:45.497Z,83.88
2019-05-20T01:13:45.487Z,84.19
2019-05-20T01:14:45.477Z,84.09
2019-05-20T01:15:45.489Z,84.69
2019-05-20T01:16:45.457Z,84.49
2019-05-20T01:17:45.446Z,84.79
2019-05-20T01:18:45.435Z,84.59
2019-05-20T01:19:45.423Z,84.59
2019-05-20T01:20:45.439Z,84.69
2019-05-20T01:21:45.399Z,83.98
2019-05-20T01:22:45.389Z,84.79
2019-05-20T01:23:45.382Z,84.89
2019-05-20T01:24:45.369Z,84.63
2019-05-20T01:25:45.382Z,84.93
2019-05-20T01:26:45.345Z,85.14
2019-05-20T01:27:45.338Z,85.24
2019-05-20T01:28:45.324Z,85.44
2019-05-20T01:29:45.314Z,85.34
2019-05-20T01:30:45.331Z,85.34
2019-05-20T01:31:45.292Z,85.44
2019-05-20T01:32:45.280Z,84.93
2019-05-20T01:33:45.276Z,84.73
2019-05-20T01:34:45.259Z,84.73
2019-05-20T01:35:45.276Z,84.73
2019-05-20T01:36:45.237Z,84.83
2019-05-20T01:37:45.227Z,85.14
2019-05-20T01:38:45.219Z,84.83
2019-05-20T01:39:45.202Z,85.03
2019-05-20T01:40:45.218Z,84.53
2019-05-20T01:41:45.183Z,84.89
2019-05-20T01:42:45.175Z,84.89
2019-05-20T01:43:45.159Z,84.73
2019-05-20T01:44:45.150Z,84.73
2019-05-20T01:45:45.164Z,84.83
2019-05-20T01:46:45.128Z,84.63
2019-05-20T01:47:45.118Z,84.63
2019-05-20T01:48:45.105Z,84.73
2019-05-20T01:49:45.096Z,84.73
2019-05-20T01:50:45.117Z,84.73
2019-05-20T01:51:45.072Z,84.93
2019-05-20T01:52:45.061Z,84.93
2019-05-20T01:53:45.050Z,85.24
2019-05-20T01:54:45.042Z,85.24
2019-05-20T01:55:45.054Z,85.34
2019-05-20T01:56:45.017Z,85.54
2019-05-20T01:57:45.004Z,85.44
2019-05-20T01:58:44.994Z,85.78
2019-05-20T01:59:44.983Z,85.68
2019-05-20T02:00:44.999Z,85.64
2019-05-20T02:01:44.962Z,85.68
2019-05-20T02:02:44.951Z,85.17
2019-05-20T02:03:44.941Z,85.54
2019-05-20T02:04:44.928Z,85.54
2019-05-20T02:05:44.940Z,85.24
2019-05-20T02:06:44.905Z,85.38
2019-05-20T02:07:44.896Z,85.68
2019-05-20T02:08:44.891Z,85.99
2019-05-20T02:09:44.877Z,86.19
2019-05-20T02:10:44.896Z,85.88
2019-05-20T02:11:44.851Z,86.08
2019-05-20T02:12:44.840Z,85.99
2019-05-20T02:13:44.830Z,85.99
2019-05-20T02:14:44.816Z,86.08
2019-05-20T02:15:44.837Z,86.08
2019-05-20T02:16:44.793Z,85.99
2019-05-20T02:17:44.791Z,85.88
2019-05-20T02:18:44.773Z,86.08
2019-05-20T02:19:44.767Z,86.19
2019-05-20T02:20:44.776Z,86.08
2019-05-20T02:21:44.740Z,85.88
2019-05-20T02:22:44.727Z,85.99
2019-05-20T02:23:44.717Z,86.59
2019-05-20T02:24:44.705Z,86.69
2019-05-20T02:25:46.724Z,86.59
2019-05-20T02:26:44.684Z,86.79
2019-05-20T02:27:44.677Z,86.90
2019-05-20T02:28:44.661Z,86.29
2019-05-20T02:29:44.649Z,86.69
2019-05-20T02:30:44.676Z,86.08
2019-05-20T02:31:44.628Z,86.19
2019-05-20T02:32:44.624Z,86.19
2019-05-20T02:33:51.863Z,85.88
2019-05-20T02:34:45.597Z,85.88
2019-05-20T02:35:44.609Z,85.88
2019-05-20T02:36:44.582Z,86.08
2019-05-20T02:37:44.562Z,86.08
2019-05-20T02:38:44.549Z,85.88
2019-05-20T02:39:44.536Z,85.78
2019-05-20T02:40:44.552Z,85.68
2019-05-20T02:41:44.516Z,85.58
2019-05-20T02:42:44.510Z,85.58
2019-05-20T02:43:44.496Z,85.24
2019-05-20T02:44:44.482Z,85.68
2019-05-20T02:45:44.504Z,85.68
2019-05-20T02:46:44.464Z,85.68
2019-05-20T02:47:44.447Z,85.24
2019-05-20T02:48:44.442Z,85.68
2019-05-20T02:49:44.426Z,85.58
2019-05-20T02:50:44.442Z,85.48
2019-05-20T02:51:44.402Z,85.38
2019-05-20T02:52:44.395Z,85.68
2019-05-20T02:53:44.382Z,85.88
2019-05-20T02:54:44.371Z,85.68
2019-05-20T02:55:44.400Z,86.33
2019-05-20T02:56:44.347Z,86.13
2019-05-20T02:57:44.337Z,86.13
2019-05-20T02:58:44.341Z,85.93
2019-05-20T02:59:44.315Z,86.13
2019-05-20T03:00:44.326Z,86.13
2019-05-20T03:01:44.295Z,85.93
2019-05-20T03:02:44.282Z,86.13
2019-05-20T03:03:44.268Z,86.02
2019-05-20T03:04:44.258Z,86.43
2019-05-20T03:05:44.275Z,86.22
2019-05-20T03:06:44.237Z,86.13
2019-05-20T03:07:44.237Z,86.33
2019-05-20T03:08:44.213Z,86.93
2019-05-20T03:09:44.203Z,86.93
2019-05-20T03:10:44.216Z,86.63
2019-05-20T03:11:44.199Z,86.53
2019-05-20T03:12:44.179Z,86.53
2019-05-20T03:13:44.158Z,86.63
2019-05-20T03:14:44.148Z,86.63
2019-05-20T03:15:44.160Z,86.73
2019-05-20T03:16:44.130Z,86.73
2019-05-20T03:17:44.116Z,86.53
2019-05-20T03:18:44.104Z,86.53
2019-05-20T03:19:44.091Z,86.33
2019-05-20T03:20:44.106Z,86.63
2019-05-20T03:21:44.081Z,86.43
2019-05-20T03:22:44.069Z,86.63
2019-05-20T03:23:44.047Z,86.83
2019-05-20T03:24:44.039Z,86.73
2019-05-20T03:25:44.049Z,86.93
2019-05-20T03:26:44.014Z,86.73
2019-05-20T03:27:44.004Z,86.33
2019-05-20T03:28:43.991Z,86.53
2019-05-20T03:29:43.982Z,86.53
2019-05-20T03:30:43.998Z,86.63
2019-05-20T03:31:43.958Z,86.63
2019-05-20T03:32:43.948Z,86.33
2019-05-20T03:33:43.943Z,86.13
2019-05-20T03:34:53.753Z,85.93
2019-05-20T03:35:44.939Z,86.13
2019-05-20T03:36:43.904Z,85.93
2019-05-20T03:37:43.893Z,86.13
2019-05-20T03:38:43.885Z,86.02
2019-05-20T03:39:43.871Z,86.22
2019-05-20T03:40:43.887Z,86.02
2019-05-20T03:41:43.850Z,86.02
2019-05-20T03:42:43.838Z,86.02
2019-05-20T03:43:43.853Z,86.13
2019-05-20T03:44:43.820Z,85.93
2019-05-20T03:45:43.828Z,86.13
2019-05-20T03:46:43.794Z,86.02
2019-05-20T03:47:43.783Z,86.02
2019-05-20T03:48:43.770Z,85.93
2019-05-20T03:49:43.760Z,86.02
2019-05-20T03:50:43.771Z,85.93
2019-05-20T03:51:43.745Z,86.02
2019-05-20T03:52:43.727Z,86.02
2019-05-20T03:53:43.715Z,86.13
2019-05-20T03:54:43.702Z,86.02
2019-05-20T03:55:43.717Z,85.93
2019-05-20T03:56:43.679Z,85.88
2019-05-20T03:57:43.670Z,85.78
2019-05-20T03:58:43.657Z,85.88
2019-05-20T03:59:43.647Z,85.88
2019-05-20T04:00:43.663Z,85.68
2019-05-20T04:01:43.625Z,85.38
2019-05-20T04:02:43.614Z,85.17
2019-05-20T04:03:43.602Z,85.58
2019-05-20T04:05:00.830Z,85.58
2019-05-20T04:05:44.608Z,85.38
2019-05-20T04:06:43.570Z,85.17
2019-05-20T04:07:43.560Z,85.68
2019-05-20T04:08:43.548Z,85.68
2019-05-20T04:09:43.536Z,85.38
2019-05-20T04:10:43.571Z,85.44
2019-05-20T04:11:43.515Z,85.08
2019-05-20T04:12:43.503Z,85.17
2019-05-20T04:13:43.492Z,85.03
2019-05-20T04:14:43.479Z,85.03
2019-05-20T04:15:43.495Z,85.03
2019-05-20T04:16:43.457Z,85.03
2019-05-20T04:17:43.447Z,84.83
2019-05-20T04:18:43.436Z,84.83
2019-05-20T04:19:43.425Z,84.63
2019-05-20T04:20:43.446Z,84.93
2019-05-20T04:21:43.440Z,84.73
2019-05-20T04:22:43.394Z,84.93
2019-05-20T04:23:43.381Z,84.93
2019-05-20T04:24:43.367Z,85.14
2019-05-20T04:25:43.406Z,85.28
2019-05-20T04:26:43.349Z,85.03
2019-05-20T04:27:43.339Z,85.14
2019-05-20T04:28:43.334Z,85.28
2019-05-20T04:29:43.329Z,85.58
2019-05-20T04:30:43.327Z,85.78
2019-05-20T04:31:43.290Z,85.99
2019-05-20T04:32:43.284Z,85.48
2019-05-20T04:33:43.268Z,85.58
2019-05-20T04:34:43.273Z,85.58
2019-05-20T04:35:43.275Z,85.58
2019-05-20T04:36:43.235Z,85.64
2019-05-20T04:37:43.226Z,85.28
2019-05-20T04:38:43.216Z,85.48
2019-05-20T04:39:43.204Z,85.44
2019-05-20T04:40:43.217Z,85.14
2019-05-20T04:41:43.184Z,84.73
2019-05-20T04:42:43.172Z,85.03
2019-05-20T04:43:43.160Z,85.14
2019-05-20T04:44:43.151Z,85.03
2019-05-20T04:45:43.165Z,84.53
2019-05-20T04:46:43.127Z,84.83
2019-05-20T04:47:43.117Z,84.83
2019-05-20T04:48:43.112Z,84.57
2019-05-20T04:49:43.093Z,84.93
2019-05-20T04:50:43.110Z,84.63
2019-05-20T04:51:43.077Z,84.73
2019-05-20T04:52:43.062Z,84.63
2019-05-20T04:53:43.052Z,84.73
2019-05-20T04:54:43.045Z,84.53
2019-05-20T04:55:43.056Z,84.23
2019-05-20T04:56:43.027Z,83.32
2019-05-20T04:57:43.007Z,83.52
2019-05-20T04:58:43.016Z,83.52
2019-05-20T04:59:42.986Z,83.92
2019-05-20T05:00:43.000Z,83.38
2019-05-20T05:01:42.982Z,83.72
2019-05-20T05:02:43.827Z,83.72
2019-05-20T05:03:42.943Z,83.62
2019-05-20T05:04:42.933Z,83.52
2019-05-20T05:05:42.953Z,84.03
2019-05-20T05:06:42.908Z,83.72
2019-05-20T05:07:42.897Z,83.92
2019-05-20T05:08:42.888Z,84.33
2019-05-20T05:09:42.875Z,84.33
2019-05-20T05:10:42.896Z,84.33
2019-05-20T05:11:42.862Z,83.72
2019-05-20T05:12:42.842Z,83.62
2019-05-20T05:13:42.834Z,83.62
2019-05-20T05:14:42.820Z,83.82
2019-05-20T05:15:42.836Z,83.52
2019-05-20T05:16:42.802Z,83.58
2019-05-20T05:17:42.790Z,83.52
2019-05-20T05:18:42.792Z,83.28
2019-05-20T05:19:42.782Z,83.18
2019-05-20T05:20:42.780Z,83.18
2019-05-20T05:21:42.747Z,82.98
2019-05-20T05:22:42.733Z,82.98
2019-05-20T05:23:42.724Z,82.98
2019-05-20T05:24:42.714Z,83.07
2019-05-20T05:25:42.728Z,81.93
2019-05-20T05:26:42.697Z,82.13
2019-05-20T05:27:42.678Z,82.78
2019-05-20T05:28:49.549Z,82.33
2019-05-20T05:29:42.656Z,81.93
2019-05-20T05:30:42.673Z,81.93
2019-05-20T05:31:42.714Z,81.99
2019-05-20T05:32:42.739Z,81.48
2019-05-20T05:33:42.614Z,81.48
2019-05-20T05:34:42.632Z,80.58
2019-05-20T05:35:52.741Z,80.58
2019-05-20T05:36:43.606Z,80.58
2019-05-20T05:37:42.573Z,80.78
2019-05-20T05:38:42.558Z,80.88
2019-05-20T05:39:42.547Z,79.77
2019-05-20T05:40:42.632Z,80.07
2019-05-20T05:41:42.614Z,80.27
2019-05-20T05:42:42.515Z,79.97
2019-05-20T05:43:42.504Z,79.43
2019-05-20T05:44:42.493Z,79.67
2019-05-20T05:45:42.516Z,79.67
2019-05-20T05:46:42.477Z,79.97
2019-05-20T05:47:42.462Z,79.77
2019-05-20T05:48:42.457Z,79.87
2019-05-20T05:49:42.439Z,79.57
2019-05-20T05:50:42.461Z,79.57
2019-05-20T05:51:42.419Z,79.57
2019-05-20T05:52:42.407Z,79.63
2019-05-20T05:53:42.394Z,79.33
2019-05-20T05:54:42.385Z,79.63
2019-05-20T05:55:42.394Z,79.53
2019-05-20T05:56:42.360Z,78.92
2019-05-20T05:57:42.351Z,78.63
2019-05-20T05:58:42.341Z,78.69
2019-05-20T05:59:42.329Z,78.69
2019-05-20T06:00:42.343Z,77.88
2019-05-20T06:01:42.335Z,78.15
2019-05-20T06:02:42.641Z,78.15
2019-05-20T06:03:42.285Z,77.64
2019-05-20T06:04:42.274Z,77.44
2019-05-20T06:05:42.287Z,77.14
2019-05-20T06:06:42.252Z,76.94
2019-05-20T06:07:42.241Z,77.14
2019-05-20T06:08:42.231Z,77.55
2019-05-20T06:09:42.219Z,77.44
2019-05-20T06:10:42.231Z,77.55
2019-05-20T06:11:42.197Z,77.44
2019-05-20T06:12:42.223Z,77.04
2019-05-20T06:13:42.176Z,76.70
2019-05-20T06:14:42.172Z,76.70
2019-05-20T06:15:42.179Z,76.70
2019-05-20T06:16:42.147Z,77.00
2019-05-20T06:17:42.137Z,77.11
2019-05-20T06:18:42.126Z,76.50
2019-05-20T06:19:42.111Z,76.10
2019-05-20T06:20:42.126Z,76.16
2019-05-20T06:21:42.091Z,75.86
2019-05-20T06:22:42.081Z,75.46
2019-05-20T06:23:42.070Z,74.45
2019-05-20T06:24:42.058Z,75.05
2019-05-20T06:25:42.073Z,75.52
2019-05-20T06:26:42.037Z,75.62
2019-05-20T06:27:42.034Z,75.12
2019-05-20T06:28:42.015Z,75.02
2019-05-20T06:29:42.005Z,75.02
2019-05-20T06:30:42.033Z,75.02
2019-05-20T06:31:41.980Z,74.72
2019-05-20T06:32:41.973Z,74.21
2019-05-20T06:33:41.960Z,73.71
2019-05-20T06:34:43.113Z,73.27
2019-05-20T06:35:41.959Z,73.07
2019-05-20T06:36:41.930Z,73.78
2019-05-20T06:37:41.915Z,73.47
2019-05-20T06:38:41.904Z,73.98
2019-05-20T06:39:41.890Z,73.68
2019-05-20T06:40:41.906Z,73.81
2019-05-20T06:41:41.880Z,73.71
2019-05-20T06:42:41.860Z,72.97
2019-05-20T06:43:41.845Z,73.07
2019-05-20T06:44:52.363Z,73.47
2019-05-20T06:45:42.865Z,73.07
2019-05-20T06:46:41.830Z,72.53
2019-05-20T06:47:41.800Z,72.53
2019-05-20T06:48:41.801Z,72.84
2019-05-20T06:49:41.780Z,72.64
2019-05-20T06:50:41.816Z,73.44
2019-05-20T06:51:41.756Z,72.44
2019-05-20T06:52:41.748Z,72.53
2019-05-20T06:53:41.736Z,73.61
2019-05-20T06:54:41.733Z,72.10
2019-05-20T06:55:41.740Z,72.20
2019-05-20T06:56:41.714Z,71.70
2019-05-20T06:57:41.691Z,71.09
2019-05-20T06:58:41.685Z,71.00
2019-05-20T06:59:41.669Z,71.70
2019-05-20T07:00:41.700Z,70.79
2019-05-20T07:01:41.667Z,71.09
2019-05-20T07:02:41.636Z,69.56
2019-05-20T07:03:41.630Z,70.06
2019-05-20T07:04:41.623Z,70.66
2019-05-20T07:05:41.638Z,69.96
2019-05-20T07:06:46.589Z,70.06
2019-05-20T07:07:42.585Z,69.35
2019-05-20T07:08:41.573Z,69.32
2019-05-20T07:09:41.580Z,69.92
2019-05-20T07:10:41.598Z,70.23
2019-05-20T07:11:51.946Z,70.12
2019-05-20T07:12:42.527Z,69.42
2019-05-20T07:13:41.519Z,69.82
2019-05-20T07:14:41.508Z,69.53
2019-05-20T07:15:41.520Z,69.09
2019-05-20T07:16:41.485Z,68.59
2019-05-20T07:17:41.474Z,68.29
2019-05-20T07:18:41.463Z,67.79
2019-05-20T07:19:41.457Z,68.15
2019-05-20T07:20:41.476Z,68.35
2019-05-20T07:21:41.430Z,67.69
2019-05-20T07:22:55.442Z,67.65
2019-05-20T07:23:42.408Z,67.65
2019-05-20T07:24:41.400Z,67.15
2019-05-20T07:25:41.421Z,66.65
2019-05-20T07:26:41.375Z,66.15
2019-05-20T07:27:41.365Z,66.02
2019-05-20T07:28:41.353Z,65.72
2019-05-20T07:29:41.349Z,65.82
2019-05-20T07:30:41.354Z,65.28
2019-05-20T07:31:41.323Z,65.12
2019-05-20T07:32:41.317Z,65.28
2019-05-20T07:33:41.304Z,65.48
2019-05-20T07:34:41.295Z,64.89
2019-05-20T07:35:41.299Z,64.48
2019-05-20T07:36:41.266Z,64.59
2019-05-20T07:37:41.251Z,64.15
2019-05-20T07:38:41.240Z,64.15
2019-05-20T07:39:41.262Z,64.95
2019-05-20T07:40:41.245Z,64.45
2019-05-20T07:41:41.972Z,63.45
2019-05-20T07:42:41.202Z,63.42
2019-05-20T07:43:41.187Z,63.32
2019-05-20T07:44:41.178Z,64.22
2019-05-20T07:45:41.192Z,63.02
2019-05-20T07:46:41.174Z,63.22
2019-05-20T07:47:41.143Z,63.32
2019-05-20T07:48:41.176Z,63.92
2019-05-20T07:49:41.122Z,63.42
2019-05-20T07:50:41.143Z,63.53
2019-05-20T07:51:41.104Z,63.29
2019-05-20T07:52:41.093Z,64.03
2019-05-20T07:53:41.099Z,63.29
2019-05-20T07:54:41.068Z,63.39
2019-05-20T07:55:41.086Z,63.09
2019-05-20T07:56:41.057Z,63.59
2019-05-20T07:57:41.042Z,63.39
2019-05-20T07:58:41.026Z,62.56
2019-05-20T07:59:41.025Z,62.06
2019-05-20T08:00:41.030Z,62.19
2019-05-20T08:01:40.994Z,62.66
2019-05-20T08:02:40.988Z,62.66
2019-05-20T08:03:40.972Z,62.37
2019-05-20T08:04:40.971Z,62.06
2019-05-20T08:05:40.973Z,61.87
2019-05-20T08:06:40.950Z,62.04
2019-05-20T08:07:52.036Z,62.23
2019-05-20T08:08:41.916Z,61.54
2019-05-20T08:09:45.805Z,61.93
2019-05-20T08:10:41.925Z,62.63
2019-05-20T08:11:40.887Z,62.34
2019-05-20T08:12:40.873Z,62.04
2019-05-20T08:13:40.866Z,63.03
2019-05-20T08:14:40.865Z,61.83
2019-05-20T08:15:40.874Z,61.73
2019-05-20T08:16:40.832Z,61.33
2019-05-20T08:17:40.817Z,61.21
2019-05-20T08:18:40.810Z,60.61
2019-05-20T08:19:40.797Z,60.61
2019-05-20T08:20:40.810Z,60.21
2019-05-20T08:21:40.775Z,60.71
2019-05-20T08:22:40.767Z,59.38
2019-05-20T08:23:40.769Z,59.78
2019-05-20T08:24:40.744Z,59.18
2019-05-20T08:25:40.758Z,59.08
2019-05-20T08:26:40.793Z,59.38
2019-05-20T08:27:40.709Z,58.88
2019-05-20T08:28:40.702Z,58.55
2019-05-20T08:29:40.702Z,58.06
2019-05-20T08:30:40.706Z,57.86
2019-05-20T08:31:40.668Z,58.25
2019-05-20T08:32:40.675Z,58.45
2019-05-20T08:33:40.649Z,59.25
2019-05-20T08:34:40.705Z,58.36
2019-05-20T08:35:40.654Z,58.25
2019-05-20T08:36:40.685Z,57.35
2019-05-20T08:37:45.841Z,57.43
2019-05-20T08:38:41.592Z,57.73
2019-05-20T08:39:40.582Z,56.83
2019-05-20T08:40:40.597Z,56.83
2019-05-20T08:41:40.564Z,56.63
2019-05-20T08:42:40.551Z,57.43
2019-05-20T08:43:40.541Z,57.13
2019-05-20T08:44:40.529Z,56.90
2019-05-20T08:45:40.567Z,57.00
2019-05-20T08:46:40.509Z,56.60
2019-05-20T08:47:40.499Z,55.71
2019-05-20T08:48:40.492Z,55.31
2019-05-20T08:49:40.596Z,57.70
2019-05-20T08:50:40.490Z,56.40
2019-05-20T08:51:40.455Z,55.51
2019-05-20T08:52:40.444Z,55.11
2019-05-20T08:53:40.466Z,55.11
2019-05-20T08:54:40.648Z,56.70
2019-05-20T08:55:40.443Z,56.60
2019-05-20T08:56:40.398Z,55.91
2019-05-20T08:57:40.401Z,54.91
2019-05-20T08:58:40.377Z,55.01
2019-05-20T08:59:40.369Z,55.21
2019-05-20T09:00:40.378Z,55.31
2019-05-20T09:01:40.343Z,54.41
2019-05-20T09:02:40.357Z,55.18
2019-05-20T09:03:40.327Z,55.31
2019-05-20T09:04:40.310Z,54.01
2019-05-20T09:05:40.346Z,53.11
2019-05-20T09:06:40.288Z,53.99
2019-05-20T09:07:40.285Z,53.49
2019-05-20T09:08:40.267Z,53.06
2019-05-20T09:09:40.295Z,53.19
2019-05-20T09:10:40.272Z,52.86
2019-05-20T09:11:40.233Z,52.37
2019-05-20T09:12:40.222Z,54.66
2019-05-20T09:13:40.220Z,52.97
2019-05-20T09:14:40.737Z,52.67
2019-05-20T09:15:40.220Z,52.17
2019-05-20T09:16:40.178Z,52.44
2019-05-20T09:17:40.175Z,52.04
2019-05-20T09:18:40.176Z,52.14
2019-05-20T09:19:40.147Z,51.35
2019-05-20T09:20:40.172Z,50.95
2019-05-20T09:21:40.125Z,51.35
2019-05-20T09:22:40.114Z,50.55
2019-05-20T09:23:40.103Z,50.52
2019-05-20T09:24:40.140Z,49.93
2019-05-20T09:25:40.119Z,50.43
2019-05-20T09:26:40.080Z,49.43
2019-05-20T09:27:40.069Z,49.73
2019-05-20T09:28:40.046Z,49.53
2019-05-20T09:29:40.036Z,50.10
2019-05-20T09:30:40.057Z,50.40
2019-05-20T09:31:40.031Z,50.80
2019-05-20T09:32:43.057Z,50.88
2019-05-20T09:33:40.000Z,50.10
2019-05-20T09:34:39.989Z,50.68
2019-05-20T09:35:40.029Z,48.19
2019-05-20T09:36:39.964Z,48.91
2019-05-20T09:37:39.951Z,48.91
2019-05-20T09:38:39.945Z,49.19
2019-05-20T09:39:39.931Z,49.80
2019-05-20T09:40:39.947Z,49.80
2019-05-20T09:41:39.945Z,48.91
2019-05-20T09:42:41.011Z,49.21
2019-05-20T09:43:39.937Z,49.51
2019-05-20T09:44:39.879Z,48.91
2019-05-20T09:45:39.907Z,48.22
2019-05-20T09:46:39.857Z,48.69
2019-05-20T09:47:39.861Z,48.79
2019-05-20T09:48:39.836Z,48.59
2019-05-20T09:49:39.830Z,49.86
2019-05-20T09:50:39.842Z,48.77
2019-05-20T09:51:39.807Z,48.37
2019-05-20T09:52:39.792Z,47.28
2019-05-20T09:53:39.781Z,47.57
2019-05-20T09:54:39.773Z,48.57
2019-05-20T09:55:39.793Z,48.47
2019-05-20T09:56:39.754Z,47.40
2019-05-20T09:57:39.737Z,47.77
2019-05-20T09:58:39.725Z,47.85
2019-05-20T09:59:43.355Z,48.37
2019-05-20T10:00:39.732Z,47.38
2019-05-20T10:01:40.431Z,47.95
2019-05-20T10:02:39.681Z,47.16
2019-05-20T10:03:39.672Z,47.05
2019-05-20T10:04:39.691Z,47.55
2019-05-20T10:05:39.675Z,46.76
2019-05-20T10:06:39.642Z,47.03
2019-05-20T10:07:39.633Z,46.04
2019-05-20T10:08:44.806Z,46.83
2019-05-20T10:09:40.603Z,46.16
2019-05-20T10:10:39.622Z,45.94
2019-05-20T10:11:39.598Z,45.74
2019-05-20T10:12:47.218Z,46.64
2019-05-20T10:13:40.559Z,46.83
2019-05-20T10:14:39.555Z,47.11
2019-05-20T10:15:39.565Z,45.82
2019-05-20T10:16:39.530Z,46.12
2019-05-20T10:17:39.519Z,44.83
2019-05-20T10:18:39.628Z,45.79
2019-05-20T10:19:39.498Z,46.12
2019-05-20T10:20:39.517Z,45.82
2019-05-20T10:21:39.478Z,46.61
2019-05-20T10:22:39.468Z,46.02
2019-05-20T10:23:39.547Z,45.32
2019-05-20T10:24:39.445Z,45.82
2019-05-20T10:25:39.465Z,46.81
2019-05-20T10:26:39.427Z,46.39
2019-05-20T10:27:39.420Z,45.79
2019-05-20T10:28:41.990Z,46.00
2019-05-20T10:29:40.397Z,45.87
2019-05-20T10:30:39.422Z,46.64
2019-05-20T10:31:39.374Z,45.43
2019-05-20T10:32:39.363Z,45.83
2019-05-20T10:33:39.353Z,45.14
2019-05-20T10:34:39.342Z,43.75
2019-05-20T10:35:39.361Z,44.02
2019-05-20T10:36:39.319Z,43.93
2019-05-20T10:37:39.309Z,42.84
2019-05-20T10:38:56.836Z,42.84
2019-05-20T10:39:40.284Z,43.46
2019-05-20T10:40:39.314Z,43.46
2019-05-20T10:41:39.264Z,44.45
2019-05-20T10:42:39.255Z,43.85
2019-05-20T10:43:39.242Z,42.72
2019-05-20T10:44:41.900Z,43.21
2019-05-20T10:45:39.248Z,43.31
2019-05-20T10:46:39.211Z,42.40
2019-05-20T10:47:39.213Z,42.60
2019-05-20T10:48:39.191Z,41.69
2019-05-20T10:49:39.191Z,41.99
2019-05-20T10:50:39.194Z,42.38
2019-05-20T10:51:39.161Z,41.59
2019-05-20T10:52:39.149Z,41.39
2019-05-20T10:53:39.137Z,41.59
2019-05-20T10:54:39.127Z,41.39
2019-05-20T10:55:39.141Z,41.49
2019-05-20T10:56:39.106Z,41.97
2019-05-20T10:57:39.100Z,41.38
2019-05-20T10:58:39.092Z,40.98
2019-05-20T10:59:39.074Z,41.97
2019-05-20T11:00:39.092Z,41.38
2019-05-20T11:01:39.056Z,41.28
2019-05-20T11:02:39.044Z,41.12
2019-05-20T11:03:39.055Z,41.28
2019-05-20T11:04:39.024Z,42.36
2019-05-20T11:05:39.036Z,41.67
2019-05-20T11:06:39.004Z,42.07
2019-05-20T11:07:39.078Z,42.58
2019-05-20T11:08:38.980Z,42.49
2019-05-20T11:09:38.979Z,42.38
2019-05-20T11:10:38.986Z,43.30
2019-05-20T11:11:39.547Z,43.49
2019-05-20T11:12:38.942Z,44.51
2019-05-20T11:13:38.942Z,45.32
2019-05-20T11:14:38.918Z,45.54
2019-05-20T11:15:38.930Z,45.05
2019-05-20T11:16:38.906Z,45.34
2019-05-20T11:17:38.927Z,45.15
2019-05-20T11:18:38.881Z,45.15
2019-05-20T11:19:38.866Z,45.84
2019-05-20T11:20:38.883Z,46.44
2019-05-20T11:21:38.843Z,46.14
2019-05-20T11:22:38.841Z,46.04
2019-05-20T11:23:38.823Z,45.74
2019-05-20T11:24:38.815Z,46.14
2019-05-20T11:25:38.833Z,45.45
2019-05-20T11:26:38.832Z,45.15
2019-05-20T11:27:38.787Z,45.67
2019-05-20T11:28:38.769Z,46.56
2019-05-20T11:29:38.761Z,46.46
2019-05-20T11:30:38.770Z,46.95
2019-05-20T11:31:38.739Z,46.66
2019-05-20T11:32:38.736Z,46.76
2019-05-20T11:33:38.714Z,47.05
2019-05-20T11:34:38.773Z,47.16
2019-05-20T11:35:38.719Z,47.05
2019-05-20T11:36:38.699Z,46.66
2019-05-20T11:37:38.672Z,47.75
2019-05-20T11:38:38.660Z,47.77
2019-05-20T11:39:38.647Z,47.55
2019-05-20T11:40:38.666Z,47.65
2019-05-20T11:41:52.639Z,48.07
2019-05-20T11:42:39.616Z,48.47
2019-05-20T11:43:38.609Z,47.77
2019-05-20T11:44:38.595Z,48.07
2019-05-20T11:45:38.612Z,48.44
2019-05-20T11:46:38.577Z,48.02
2019-05-20T11:47:38.567Z,47.53
2019-05-20T11:48:38.553Z,47.31
2019-05-20T11:49:38.561Z,47.90
2019-05-20T11:50:38.557Z,47.41
2019-05-20T11:51:38.525Z,46.69
2019-05-20T11:52:38.515Z,46.69
2019-05-20T11:53:38.500Z,46.49
2019-05-20T11:54:38.490Z,46.59
2019-05-20T11:55:38.504Z,47.09
2019-05-20T11:56:38.473Z,46.89
2019-05-20T11:57:38.457Z,46.59
2019-05-20T11:58:38.447Z,46.59
2019-05-20T11:59:38.453Z,46.69
2019-05-20T12:00:38.452Z,46.59
2019-05-20T12:01:38.415Z,46.89
2019-05-20T12:02:38.405Z,47.46
2019-05-20T12:03:38.398Z,46.97
2019-05-20T12:04:38.384Z,46.67
2019-05-20T12:05:38.439Z,46.97
2019-05-20T12:06:38.364Z,47.36
2019-05-20T12:07:38.361Z,46.77
2019-05-20T12:08:38.341Z,45.78
2019-05-20T12:09:49.143Z,45.87
2019-05-20T12:10:39.342Z,45.70
2019-05-20T12:11:38.305Z,45.79
2019-05-20T12:12:38.312Z,46.98
2019-05-20T12:13:38.284Z,47.19
2019-05-20T12:14:38.275Z,47.01
2019-05-20T12:15:38.294Z,46.31
2019-05-20T12:16:38.252Z,46.98
2019-05-20T12:17:38.247Z,46.69
2019-05-20T12:18:38.230Z,46.79
2019-05-20T12:19:38.219Z,47.16
2019-05-20T12:20:38.239Z,46.77
2019-05-20T12:21:38.199Z,46.47
2019-05-20T12:22:38.197Z,46.67
2019-05-20T12:23:38.200Z,47.16
2019-05-20T12:24:38.213Z,46.77
2019-05-20T12:25:38.177Z,47.09
2019-05-20T12:26:38.145Z,47.49
2019-05-20T12:27:38.134Z,47.19
2019-05-20T12:28:38.122Z,47.68
2019-05-20T12:29:38.111Z,47.19
2019-05-20T12:30:38.139Z,47.19
2019-05-20T12:31:38.093Z,47.09
2019-05-20T12:32:38.117Z,47.49
2019-05-20T12:33:38.069Z,47.78
2019-05-20T12:34:38.058Z,47.98
2019-05-20T12:35:38.089Z,47.58
2019-05-20T12:36:38.044Z,46.69
2019-05-20T12:37:38.070Z,47.38
2019-05-20T12:38:38.018Z,46.79
2019-05-20T12:39:38.003Z,46.97
2019-05-20T12:40:38.017Z,46.57
2019-05-20T12:41:38.155Z,46.64
2019-05-20T12:42:37.977Z,47.14
2019-05-20T12:43:37.961Z,48.15
2019-05-20T12:44:37.949Z,47.68
2019-05-20T12:45:37.963Z,49.07
2019-05-20T12:46:37.929Z,49.07
2019-05-20T12:47:37.917Z,48.87
2019-05-20T12:48:37.911Z,48.77
2019-05-20T12:49:37.968Z,48.25
2019-05-20T12:50:37.911Z,48.45
2019-05-20T12:51:37.874Z,47.66
2019-05-20T12:52:37.867Z,47.56